This is the latest recevied weather packets stored in our database for station/object G4ZMG. If no packets are shown the sender has not sent any weather packets the latest 10 day(s).
| Time | Temp. | Humidity | Pressure | Rain* | Wind** | Luminosity | Snow |
|---|---|---|---|---|---|---|---|
| 1777863041 | 10.56° C | 95% | 1011.2 hPa | 0 mm | - | 0 W/m² | - |
| 1777847442 | 11.67° C | 92% | 1010.6 hPa | 0 mm | - | 0 W/m² | - |
| 1777843841 | 11.67° C | 92% | 1010 hPa | 0.25 mm | - | 0 W/m² | - |
| 1777842620 | 11.67° C | 92% | 1010 hPa | 0.25 mm | - | 0 W/m² | - |
| 1777842048 | 12.22° C | 92% | 1009.9 hPa | 0.25 mm | - | 0 W/m² | - |
| 1777839644 | 12.22° C | 91% | 1009.5 hPa | 0 mm | - | 0 W/m² | - |
| 1777836629 | 12.22° C | 91% | 1008.9 hPa | 0.51 mm | - | 0 W/m² | - |
| 1777835446 | 12.22° C | 90% | 1008.7 hPa | 0.76 mm | - | 0 W/m² | - |
| 1777834825 | 12.78° C | 90% | 1008.7 hPa | 0.76 mm | - | 7 W/m² | - |
| 1777834206 | 12.78° C | 90% | 1008.6 hPa | 1.52 mm | - | 11 W/m² | - |
| 1777833642 | 12.78° C | 89% | 1008.4 hPa | 2.03 mm | - | 12 W/m² | - |
| 1777833027 | 13.33° C | 89% | 1008.3 hPa | 2.79 mm | - | 16 W/m² | - |
| 1777829446 | 15.56° C | 79% | 1007.9 hPa | 1.78 mm | - | 30 W/m² | - |
| 1777828829 | 15.56° C | 76% | 1007.9 hPa | 0.51 mm | - | 26 W/m² | - |
| 1777828209 | 16.11° C | 73% | 1007.9 hPa | 0 mm | - | 19 W/m² | - |
| 1777827646 | 16.67° C | 72% | 1007.8 hPa | 0 mm | - | 46 W/m² | - |
| 1777827042 | 16.67° C | 72% | 1007.7 hPa | 0 mm | - | 394 W/m² | - |
| 1777825242 | 16.11° C | 73% | 1007.7 hPa | 0 mm | - | 199 W/m² | - |
| 1777821622 | 16.67° C | 74% | 1007.8 hPa | 0 mm | - | 206 W/m² | - |
| 1777818624 | 16.11° C | 75% | 1007.8 hPa | 0 mm | - | 244 W/m² | - |
| 1777818009 | 16.67° C | 74% | 1007.9 hPa | 0 mm | - | 322 W/m² | - |
| 1777817403 | 16.11° C | 74% | 1008 hPa | 0 mm | - | 348 W/m² | - |
| 1777815641 | 16.11° C | 76% | 1008 hPa | 0 mm | - | 376 W/m² | - |
| 1777811438 | 15.56° C | 75% | 1008.3 hPa | 0 mm | - | 304 W/m² | - |
| 1777810820 | 15.56° C | 75% | 1008.3 hPa | 0 mm | - | 169 W/m² | - |
* Rain latest hour (hover to see other rain measurements)
** Current wind speed in m/s (hover to see current wind gust speed)